createdAt,value
2019-02-19T00:01:05.936Z,8.73
2019-02-19T00:03:33.646Z,8.80
2019-02-19T00:06:01.420Z,8.10
2019-02-19T00:08:29.100Z,8.17
2019-02-19T00:10:56.804Z,8.70
2019-02-19T00:13:24.475Z,8.23
2019-02-19T00:15:52.178Z,8.40
2019-02-19T00:18:19.951Z,8.20
2019-02-19T00:20:47.664Z,7.87
2019-02-19T00:23:15.383Z,8.33
2019-02-19T00:25:43.079Z,8.60
2019-02-19T00:28:10.811Z,8.40
2019-02-19T00:30:38.548Z,7.80
2019-02-19T00:33:06.245Z,7.60
2019-02-19T00:35:33.925Z,8.43
2019-02-19T00:38:01.652Z,7.73
2019-02-19T00:40:29.293Z,8.20
2019-02-19T00:42:57.029Z,8.13
2019-02-19T00:45:24.720Z,8.10
2019-02-19T00:47:52.511Z,7.23
2019-02-19T00:50:20.214Z,8.33
2019-02-19T00:52:47.945Z,8.07
2019-02-19T00:55:15.703Z,7.73
2019-02-19T00:57:43.559Z,8.07
2019-02-19T01:00:11.938Z,8.80
2019-02-19T01:02:39.604Z,8.40
2019-02-19T01:05:07.327Z,8.20
2019-02-19T01:07:35.075Z,8.70
2019-02-19T01:10:12.842Z,8.80
2019-02-19T01:12:40.592Z,9.03
2019-02-19T01:15:09.025Z,8.27
2019-02-19T01:17:36.767Z,8.97
2019-02-19T01:20:04.988Z,8.33
2019-02-19T01:22:32.717Z,8.43
2019-02-19T01:25:00.430Z,8.50
2019-02-19T01:27:28.151Z,8.43
2019-02-19T01:29:55.904Z,8.43
2019-02-19T01:32:23.567Z,8.83
2019-02-19T01:34:51.331Z,7.70
2019-02-19T01:37:19.037Z,8.60
2019-02-19T01:39:47.907Z,8.90
2019-02-19T01:42:15.782Z,9.70
2019-02-19T01:44:43.477Z,9.80
2019-02-19T01:47:11.140Z,8.93
2019-02-19T01:49:38.947Z,8.80
2019-02-19T01:52:06.603Z,9.83
2019-02-19T01:54:34.355Z,9.20
2019-02-19T01:57:02.040Z,9.70
2019-02-19T01:59:30.006Z,10.50
2019-02-19T02:01:57.722Z,10.93
2019-02-19T02:04:25.494Z,10.13
2019-02-19T02:06:53.183Z,10.73
2019-02-19T02:09:20.921Z,10.87
2019-02-19T02:11:48.582Z,12.43
2019-02-19T02:14:16.370Z,11.50
2019-02-19T02:16:44.038Z,11.83
2019-02-19T02:19:11.703Z,12.87
2019-02-19T02:21:39.531Z,12.87
2019-02-19T02:24:07.210Z,13.47
2019-02-19T02:26:34.962Z,12.93
2019-02-19T02:29:02.676Z,12.40
2019-02-19T02:31:30.409Z,12.70
2019-02-19T02:33:58.139Z,13.50
2019-02-19T02:36:25.874Z,13.93
2019-02-19T02:38:53.505Z,13.57
2019-02-19T02:41:21.300Z,14.00
2019-02-19T02:43:49.001Z,13.70
2019-02-19T02:46:16.715Z,15.33
2019-02-19T02:48:44.430Z,14.03
2019-02-19T02:51:12.113Z,14.47
2019-02-19T02:53:39.815Z,15.13
2019-02-19T02:56:07.678Z,15.27
2019-02-19T02:58:35.514Z,15.37
2019-02-19T03:01:03.579Z,15.40
2019-02-19T03:03:31.307Z,16.03
2019-02-19T03:06:15.471Z,15.60
2019-02-19T03:08:43.170Z,16.50
2019-02-19T03:11:10.867Z,17.53
2019-02-19T03:13:38.559Z,16.60
2019-02-19T03:16:06.247Z,16.57
2019-02-19T03:18:34.016Z,16.70
2019-02-19T03:21:01.705Z,17.90
2019-02-19T03:23:29.408Z,17.57
2019-02-19T03:25:57.104Z,17.97
2019-02-19T03:28:24.762Z,17.27
2019-02-19T03:30:52.554Z,17.87
2019-02-19T03:33:20.236Z,17.73
2019-02-19T03:35:47.921Z,17.13
2019-02-19T03:38:17.310Z,17.00
2019-02-19T03:40:44.992Z,18.00
2019-02-19T03:43:12.722Z,18.63
2019-02-19T03:45:40.414Z,17.83
2019-02-19T03:48:08.151Z,20.10
2019-02-19T03:50:35.850Z,18.50
2019-02-19T03:53:03.533Z,19.20
2019-02-19T03:55:31.161Z,19.47
2019-02-19T03:57:58.860Z,19.33
2019-02-19T04:00:26.547Z,20.40
2019-02-19T04:02:54.204Z,19.33
2019-02-19T04:05:21.928Z,20.03
2019-02-19T04:07:49.648Z,19.43
2019-02-19T04:10:17.323Z,18.60
2019-02-19T04:12:45.008Z,19.53
2019-02-19T04:15:12.816Z,19.10
2019-02-19T04:17:40.507Z,19.20
2019-02-19T04:20:10.024Z,19.23
2019-02-19T04:22:37.704Z,19.47
2019-02-19T04:25:05.475Z,19.80
2019-02-19T04:27:33.122Z,19.80
2019-02-19T04:30:00.794Z,20.73
2019-02-19T04:32:28.514Z,20.27
2019-02-19T04:34:56.243Z,20.13
2019-02-19T04:37:23.955Z,21.20
2019-02-19T04:39:51.684Z,19.43
2019-02-19T04:42:19.396Z,21.40
2019-02-19T04:44:47.087Z,20.20
2019-02-19T04:47:14.807Z,20.17
2019-02-19T04:49:42.512Z,20.87
2019-02-19T04:52:10.421Z,21.93
2019-02-19T04:54:38.143Z,21.17
2019-02-19T04:57:05.881Z,20.90
2019-02-19T04:59:33.846Z,21.17
2019-02-19T05:02:13.562Z,20.17
2019-02-19T05:04:41.260Z,20.87
2019-02-19T05:07:09.000Z,21.07
2019-02-19T05:09:36.693Z,20.40
2019-02-19T05:12:04.395Z,21.20
2019-02-19T05:14:32.114Z,21.27
2019-02-19T05:16:59.984Z,21.17
2019-02-19T05:19:27.740Z,21.63
2019-02-19T05:21:55.528Z,21.80
2019-02-19T05:24:24.863Z,21.10
2019-02-19T05:26:53.203Z,23.47
2019-02-19T05:29:20.909Z,21.30
2019-02-19T05:31:48.575Z,22.73
2019-02-19T05:34:16.324Z,23.80
2019-02-19T05:36:44.259Z,22.33
2019-02-19T05:39:12.010Z,22.03
2019-02-19T05:41:39.829Z,23.37
2019-02-19T05:44:07.517Z,21.47
2019-02-19T05:46:35.304Z,22.97
2019-02-19T05:49:03.122Z,23.10
2019-02-19T05:51:30.805Z,24.60
2019-02-19T05:53:58.580Z,24.07
2019-02-19T05:56:26.217Z,24.67
2019-02-19T05:58:53.933Z,25.00
2019-02-19T06:01:21.642Z,24.93
2019-02-19T06:03:49.348Z,24.87
2019-02-19T06:06:18.488Z,24.37
2019-02-19T06:08:46.921Z,24.47
2019-02-19T06:11:14.596Z,24.33
2019-02-19T06:13:42.391Z,25.33
2019-02-19T06:16:10.137Z,24.50
2019-02-19T06:18:37.927Z,26.27
2019-02-19T06:21:05.638Z,25.23
2019-02-19T06:23:33.323Z,25.70
2019-02-19T06:26:01.040Z,25.83
2019-02-19T06:28:28.751Z,26.70
2019-02-19T06:30:56.518Z,26.87
2019-02-19T06:33:24.191Z,25.63
2019-02-19T06:35:52.075Z,25.60
2019-02-19T06:38:19.904Z,24.90
2019-02-19T06:40:47.707Z,26.13
2019-02-19T06:43:15.395Z,25.23
2019-02-19T06:45:43.171Z,25.67
2019-02-19T06:48:10.821Z,25.60
2019-02-19T06:50:38.552Z,25.50
2019-02-19T06:53:06.379Z,24.50
2019-02-19T06:55:34.072Z,24.73
2019-02-19T06:58:01.747Z,23.87
2019-02-19T07:00:30.734Z,22.73
2019-02-19T07:03:04.599Z,24.17
2019-02-19T07:05:32.363Z,24.10
2019-02-19T07:08:00.092Z,22.53
2019-02-19T07:10:27.768Z,23.33
2019-02-19T07:12:55.585Z,21.73
2019-02-19T07:15:23.501Z,22.77
2019-02-19T07:17:51.234Z,21.90
2019-02-19T07:20:18.923Z,21.03
2019-02-19T07:22:47.190Z,21.30
2019-02-19T07:25:14.883Z,19.43
2019-02-19T07:27:43.636Z,19.63
2019-02-19T07:30:11.380Z,19.20
2019-02-19T07:32:39.189Z,18.43
2019-02-19T07:35:09.258Z,17.80
2019-02-19T07:37:36.946Z,18.27
2019-02-19T07:40:04.754Z,18.80
2019-02-19T07:42:32.467Z,18.10
2019-02-19T07:45:00.353Z,18.23
2019-02-19T07:47:28.090Z,17.97
2019-02-19T07:49:55.818Z,17.33
2019-02-19T07:52:23.641Z,18.30
2019-02-19T07:54:51.356Z,17.23
2019-02-19T07:57:19.075Z,17.77
2019-02-19T07:59:47.124Z,17.23
2019-02-19T08:02:14.969Z,17.57
2019-02-19T08:04:42.868Z,18.33
2019-02-19T08:07:10.575Z,18.27
2019-02-19T08:09:38.587Z,18.43
2019-02-19T08:12:06.549Z,17.93
2019-02-19T08:14:34.513Z,17.47
2019-02-19T08:17:02.462Z,16.63
2019-02-19T08:19:30.519Z,17.57
2019-02-19T08:21:58.329Z,17.57
2019-02-19T08:24:26.191Z,16.63
2019-02-19T08:26:54.236Z,17.03
2019-02-19T08:29:22.269Z,16.73
2019-02-19T08:31:50.295Z,17.17
2019-02-19T08:34:18.287Z,16.93
2019-02-19T08:36:45.978Z,16.40
2019-02-19T08:39:13.716Z,15.37
2019-02-19T08:41:41.476Z,16.33
2019-02-19T08:44:09.215Z,16.07
2019-02-19T08:46:36.991Z,15.90
2019-02-19T08:49:04.705Z,15.57
2019-02-19T08:51:32.411Z,15.17
2019-02-19T08:54:00.166Z,15.20
2019-02-19T08:56:29.360Z,16.23
2019-02-19T08:58:57.062Z,15.60
2019-02-19T09:01:24.745Z,16.57
2019-02-19T09:03:52.414Z,16.17
2019-02-19T09:06:20.284Z,15.50
2019-02-19T09:08:47.986Z,14.53
2019-02-19T09:11:15.719Z,15.67
2019-02-19T09:13:43.444Z,14.73
2019-02-19T09:16:14.463Z,15.17
2019-02-19T09:18:42.550Z,14.17
2019-02-19T09:21:10.467Z,13.63
2019-02-19T09:23:38.401Z,12.97
2019-02-19T09:26:06.485Z,13.77
2019-02-19T09:28:34.546Z,12.63
2019-02-19T09:31:02.535Z,12.37
2019-02-19T09:33:31.607Z,12.60
2019-02-19T09:35:59.550Z,11.23
2019-02-19T09:38:27.523Z,12.30
2019-02-19T09:40:55.526Z,10.73
2019-02-19T09:43:23.808Z,10.80
2019-02-19T09:45:51.787Z,9.67
2019-02-19T09:48:19.988Z,10.00
2019-02-19T09:50:48.144Z,9.93
2019-02-19T09:53:15.885Z,10.07
2019-02-19T09:55:43.913Z,9.47
2019-02-19T09:58:11.703Z,9.33
2019-02-19T10:00:39.690Z,9.53
2019-02-19T10:03:07.472Z,10.13
2019-02-19T10:05:35.231Z,11.03
2019-02-19T10:08:02.976Z,10.70
2019-02-19T10:10:30.669Z,9.23
2019-02-19T10:12:58.397Z,8.60
2019-02-19T10:15:26.260Z,9.13
2019-02-19T10:17:54.037Z,7.73
2019-02-19T10:20:31.235Z,8.40
2019-02-19T10:22:59.417Z,8.57
2019-02-19T10:25:27.237Z,8.10
2019-02-19T10:27:55.004Z,8.03
2019-02-19T10:30:22.753Z,7.23
2019-02-19T10:32:50.517Z,7.83
2019-02-19T10:35:18.245Z,8.17
2019-02-19T10:37:47.069Z,8.00
2019-02-19T10:40:15.158Z,7.80
2019-02-19T10:42:42.875Z,7.07
2019-02-19T10:45:15.001Z,7.27
2019-02-19T10:47:42.876Z,7.40
2019-02-19T10:50:12.373Z,7.27
2019-02-19T10:52:40.111Z,8.20
2019-02-19T10:55:07.889Z,7.90
2019-02-19T10:57:35.680Z,8.20
2019-02-19T11:00:03.938Z,7.37
2019-02-19T11:02:36.868Z,7.57
2019-02-19T11:05:04.830Z,7.37
2019-02-19T11:07:32.695Z,8.10
2019-02-19T11:10:00.420Z,7.93
2019-02-19T11:12:28.541Z,7.30
2019-02-19T11:14:56.291Z,8.23
2019-02-19T11:17:24.010Z,8.17
2019-02-19T11:19:51.752Z,7.93
2019-02-19T11:22:19.521Z,7.73
2019-02-19T11:24:47.480Z,7.63
2019-02-19T11:27:16.693Z,7.20
2019-02-19T11:29:44.754Z,6.90
2019-02-19T11:32:12.714Z,7.07
2019-02-19T11:34:41.571Z,7.37
2019-02-19T11:37:09.341Z,7.43
2019-02-19T11:39:37.085Z,7.10
2019-02-19T11:42:04.964Z,6.83
2019-02-19T11:44:39.537Z,7.17
2019-02-19T11:47:07.529Z,6.50
2019-02-19T11:49:35.428Z,6.20
2019-02-19T11:52:03.172Z,6.60
2019-02-19T11:54:30.943Z,6.10
2019-02-19T11:56:58.708Z,6.30
2019-02-19T11:59:26.474Z,6.13
2019-02-19T12:01:54.352Z,6.47
2019-02-19T12:04:22.058Z,6.07
2019-02-19T12:06:49.885Z,6.20
2019-02-19T12:09:18.920Z,5.93
2019-02-19T12:11:46.710Z,6.00
2019-02-19T12:14:14.649Z,6.47
2019-02-19T12:16:44.718Z,5.97
2019-02-19T12:19:13.984Z,5.33
2019-02-19T12:21:41.795Z,5.43
2019-02-19T12:24:15.145Z,5.97
2019-02-19T12:26:44.526Z,6.03
2019-02-19T12:29:12.267Z,5.37
2019-02-19T12:31:39.967Z,5.20
2019-02-19T12:34:07.710Z,5.83
2019-02-19T12:36:35.396Z,5.60
2019-02-19T12:39:04.903Z,4.90
2019-02-19T12:41:32.590Z,5.73
2019-02-19T12:44:00.399Z,5.23
2019-02-19T12:46:28.064Z,5.30
2019-02-19T12:48:55.738Z,6.10
2019-02-19T12:51:26.437Z,5.77
2019-02-19T12:53:53.195Z,5.40
2019-02-19T12:56:20.995Z,5.57
2019-02-19T12:58:48.722Z,5.47
2019-02-19T13:01:16.750Z,5.90
2019-02-19T13:03:44.456Z,5.40
2019-02-19T13:06:12.149Z,5.03
2019-02-19T13:08:39.865Z,5.43
2019-02-19T13:11:07.727Z,5.17
2019-02-19T13:13:35.446Z,4.53
2019-02-19T13:16:03.215Z,4.93
2019-02-19T13:18:30.899Z,4.63
2019-02-19T13:20:58.662Z,4.83
2019-02-19T13:23:26.384Z,5.10
2019-02-19T13:25:54.053Z,4.40
2019-02-19T13:28:21.768Z,4.50
2019-02-19T13:30:49.445Z,4.90
2019-02-19T13:33:17.178Z,4.60
2019-02-19T13:35:44.835Z,4.40
2019-02-19T13:38:12.518Z,4.27
2019-02-19T13:40:42.775Z,3.77
2019-02-19T13:43:10.513Z,4.53
2019-02-19T13:45:38.495Z,3.97
2019-02-19T13:48:06.335Z,3.63
2019-02-19T13:50:35.251Z,3.93
2019-02-19T13:53:10.629Z,3.90
2019-02-19T13:55:41.619Z,4.40
2019-02-19T13:58:09.308Z,3.90
2019-02-19T14:00:39.376Z,3.90
2019-02-19T14:03:07.095Z,3.67
2019-02-19T14:05:34.758Z,3.70
2019-02-19T14:08:02.452Z,3.83
2019-02-19T14:10:30.108Z,4.00
2019-02-19T14:12:57.776Z,4.70
2019-02-19T14:15:32.943Z,4.87
2019-02-19T14:18:01.347Z,4.80
2019-02-19T14:21:00.864Z,4.40
2019-02-19T14:24:00.011Z,4.67
2019-02-19T14:26:46.268Z,4.70
2019-02-19T14:29:39.202Z,3.90
2019-02-19T14:32:21.476Z,4.33
2019-02-19T14:35:07.752Z,4.07
2019-02-19T14:38:13.088Z,4.37
2019-02-19T14:40:58.977Z,4.83
2019-02-19T14:43:46.946Z,4.63
2019-02-19T14:46:34.619Z,4.47
2019-02-19T14:49:14.934Z,4.83
2019-02-19T14:52:08.417Z,4.57
2019-02-19T14:54:54.570Z,4.80
2019-02-19T14:57:53.890Z,4.70
2019-02-19T15:00:47.033Z,4.60
2019-02-19T15:03:37.313Z,4.57
2019-02-19T15:06:23.320Z,4.97
2019-02-19T15:09:09.067Z,5.23
2019-02-19T15:12:02.061Z,4.90
2019-02-19T15:14:43.248Z,5.77
2019-02-19T15:17:28.696Z,5.60
2019-02-19T15:20:14.499Z,5.37
2019-02-19T15:23:07.685Z,5.60
2019-02-19T15:25:58.041Z,6.07
2019-02-19T15:28:43.823Z,5.40
2019-02-19T15:31:31.721Z,6.77
2019-02-19T15:34:18.997Z,6.10
2019-02-19T15:37:13.106Z,6.27
2019-02-19T15:40:12.486Z,6.97
2019-02-19T15:42:58.294Z,6.70
2019-02-19T15:46:09.411Z,5.53
2019-02-19T15:48:59.647Z,5.20
2019-02-19T15:51:43.017Z,5.30
2019-02-19T15:54:36.334Z,5.80
2019-02-19T15:57:12.545Z,5.40
2019-02-19T16:00:10.029Z,5.97
2019-02-19T16:02:48.346Z,5.40
2019-02-19T16:05:24.782Z,6.00
2019-02-19T16:08:21.093Z,5.80
2019-02-19T16:11:10.963Z,4.80
2019-02-19T16:14:16.417Z,5.23
2019-02-19T16:17:11.159Z,5.73
2019-02-19T16:20:04.304Z,5.23
2019-02-19T16:22:50.762Z,5.03
2019-02-19T16:25:36.591Z,5.37
2019-02-19T16:28:35.889Z,6.00
2019-02-19T16:31:25.825Z,5.13
2019-02-19T16:34:13.080Z,6.20
2019-02-19T16:37:00.479Z,6.03
2019-02-19T16:39:35.973Z,5.70
2019-02-19T16:42:37.465Z,6.70
2019-02-19T16:45:24.527Z,6.73
2019-02-19T16:48:01.447Z,6.03
2019-02-19T16:50:57.704Z,5.97
2019-02-19T16:53:34.931Z,6.97
2019-02-19T16:56:31.227Z,6.00
2019-02-19T16:59:18.542Z,5.63
2019-02-19T17:02:14.860Z,6.57
2019-02-19T17:05:02.148Z,6.13
2019-02-19T17:07:49.341Z,6.70
2019-02-19T17:10:45.660Z,6.43
2019-02-19T17:13:25.431Z,6.53
2019-02-19T17:16:21.769Z,6.57
2019-02-19T17:19:15.125Z,6.40
2019-02-19T17:22:02.546Z,6.30
2019-02-19T17:24:40.646Z,6.93
2019-02-19T17:27:26.122Z,7.43
2019-02-19T17:30:13.120Z,6.70
2019-02-19T17:32:59.489Z,6.77
2019-02-19T17:35:55.747Z,7.13
2019-02-19T17:38:45.873Z,6.80
2019-02-19T17:41:22.168Z,7.47
2019-02-19T17:43:57.034Z,7.47
2019-02-19T17:46:51.050Z,7.70
2019-02-19T17:49:36.893Z,7.10
2019-02-19T17:52:26.763Z,7.53
2019-02-19T17:55:13.125Z,7.23
2019-02-19T17:58:03.330Z,6.83
2019-02-19T18:00:37.522Z,7.27
2019-02-19T18:03:31.298Z,7.10
2019-02-19T18:06:27.297Z,7.30
2019-02-19T18:09:17.558Z,6.63
2019-02-19T18:12:07.924Z,7.90
2019-02-19T18:14:58.130Z,6.77
2019-02-19T18:17:30.657Z,7.43
2019-02-19T18:19:58.325Z,7.43
2019-02-19T18:22:26.445Z,9.07
2019-02-19T18:24:54.224Z,8.47
2019-02-19T18:27:32.502Z,7.73
2019-02-19T18:30:00.534Z,7.60
2019-02-19T18:32:29.713Z,7.30
2019-02-19T18:34:58.446Z,8.17
2019-02-19T18:37:26.646Z,7.50
2019-02-19T18:39:55.504Z,7.43
2019-02-19T18:42:23.623Z,7.83
2019-02-19T18:44:51.916Z,7.73
2019-02-19T18:47:19.588Z,7.77
2019-02-19T18:49:48.969Z,7.17
2019-02-19T18:52:16.984Z,7.33
2019-02-19T18:54:44.946Z,7.20
2019-02-19T18:57:14.119Z,7.50
2019-02-19T18:59:41.799Z,7.57
2019-02-19T19:02:09.507Z,6.70
2019-02-19T19:04:37.216Z,7.07
2019-02-19T19:07:04.861Z,7.23
2019-02-19T19:09:32.567Z,7.17
2019-02-19T19:12:00.249Z,6.77
2019-02-19T19:14:27.964Z,6.73
2019-02-19T19:16:55.668Z,6.77
2019-02-19T19:19:23.372Z,7.10
2019-02-19T19:21:51.041Z,7.60
2019-02-19T19:24:18.666Z,6.87
2019-02-19T19:26:46.387Z,6.93
2019-02-19T19:29:14.087Z,6.27
2019-02-19T19:31:43.483Z,6.23
2019-02-19T19:34:11.162Z,6.77
2019-02-19T19:36:38.809Z,6.40
2019-02-19T19:39:06.952Z,7.27
2019-02-19T19:41:34.657Z,5.93
2019-02-19T19:44:02.370Z,6.77
2019-02-19T19:46:30.075Z,6.70
2019-02-19T19:48:57.752Z,6.93
2019-02-19T19:51:25.477Z,6.93
2019-02-19T19:53:53.196Z,6.80
2019-02-19T19:56:20.903Z,7.47
2019-02-19T19:58:48.602Z,7.47
2019-02-19T20:01:16.358Z,7.57
2019-02-19T20:03:44.995Z,7.43
2019-02-19T20:06:12.700Z,6.83
2019-02-19T20:08:40.345Z,6.73
2019-02-19T20:11:08.063Z,7.60
2019-02-19T20:13:35.709Z,7.57
2019-02-19T20:16:03.374Z,6.80
2019-02-19T20:18:38.929Z,7.10
2019-02-19T20:21:00.583Z,6.40
2019-02-19T20:23:28.305Z,6.77
2019-02-19T20:25:56.031Z,6.13
2019-02-19T20:28:23.711Z,6.50
2019-02-19T20:30:51.458Z,6.63
2019-02-19T20:33:19.158Z,6.97
2019-02-19T20:35:48.503Z,6.70
2019-02-19T20:38:16.252Z,6.60
2019-02-19T20:40:44.018Z,6.90
2019-02-19T20:43:11.662Z,7.30
2019-02-19T20:45:39.310Z,8.13
2019-02-19T20:48:07.046Z,8.47
2019-02-19T20:50:34.742Z,8.83
2019-02-19T20:53:02.378Z,8.30
2019-02-19T20:55:36.694Z,8.50
2019-02-19T20:57:59.639Z,8.67
2019-02-19T21:00:27.379Z,9.03
2019-02-19T21:02:55.021Z,8.70
2019-02-19T21:05:22.765Z,9.27
2019-02-19T21:07:50.498Z,9.17
2019-02-19T21:10:18.236Z,8.80
2019-02-19T21:12:45.907Z,7.67
2019-02-19T21:15:13.912Z,7.93
2019-02-19T21:17:41.686Z,7.77
2019-02-19T21:20:09.488Z,6.87
2019-02-19T21:22:37.213Z,7.83
2019-02-19T21:25:05.057Z,7.53
2019-02-19T21:27:33.638Z,7.20
2019-02-19T21:30:01.350Z,6.80
2019-02-19T21:32:29.079Z,6.87
2019-02-19T21:34:56.701Z,6.03
2019-02-19T21:37:24.386Z,6.10
2019-02-19T21:39:52.599Z,6.17
2019-02-19T21:42:21.893Z,5.47
2019-02-19T21:44:49.679Z,5.77
2019-02-19T21:47:17.398Z,5.97
2019-02-19T21:49:45.929Z,6.07
2019-02-19T21:52:13.571Z,5.90
2019-02-19T21:54:41.235Z,6.57
2019-02-19T21:57:08.927Z,7.00
2019-02-19T21:59:36.691Z,6.73
2019-02-19T22:02:04.423Z,7.13
2019-02-19T22:04:32.296Z,7.53
2019-02-19T22:06:59.963Z,7.33
2019-02-19T22:09:27.636Z,6.57
2019-02-19T22:11:55.353Z,7.53
2019-02-19T22:14:23.051Z,7.80
2019-02-19T22:16:50.739Z,7.40
2019-02-19T22:19:18.418Z,8.27
2019-02-19T22:22:08.066Z,7.63
2019-02-19T22:24:36.980Z,7.67
2019-02-19T22:27:05.983Z,7.90
2019-02-19T22:29:33.650Z,8.07
2019-02-19T22:32:01.622Z,7.97
2019-02-19T22:34:29.296Z,6.97
2019-02-19T22:36:56.966Z,8.27
2019-02-19T22:39:24.791Z,7.90
2019-02-19T22:41:52.559Z,8.10
2019-02-19T22:44:20.241Z,8.10
2019-02-19T22:46:47.919Z,8.30
2019-02-19T22:49:15.599Z,7.60
2019-02-19T22:51:43.279Z,7.53
2019-02-19T22:54:19.836Z,7.30
2019-02-19T22:56:47.561Z,7.50
2019-02-19T22:59:15.260Z,7.80
2019-02-19T23:01:55.270Z,7.77
2019-02-19T23:04:22.895Z,8.00
2019-02-19T23:06:50.554Z,7.83
2019-02-19T23:09:18.251Z,7.97
2019-02-19T23:11:45.940Z,8.07
2019-02-19T23:14:13.578Z,8.30
2019-02-19T23:16:41.266Z,8.27
2019-02-19T23:19:08.890Z,8.60
2019-02-19T23:21:36.627Z,8.20
2019-02-19T23:24:04.318Z,8.00
2019-02-19T23:26:32.002Z,7.57
2019-02-19T23:28:59.663Z,8.10
2019-02-19T23:31:27.377Z,8.00
2019-02-19T23:33:55.031Z,8.80
2019-02-19T23:36:30.669Z,7.63
2019-02-19T23:38:58.489Z,8.87
2019-02-19T23:41:26.139Z,8.17
2019-02-19T23:43:53.855Z,9.17
2019-02-19T23:46:21.543Z,8.07
2019-02-19T23:48:49.239Z,8.33
2019-02-19T23:51:16.853Z,7.40
2019-02-19T23:53:44.524Z,8.53
2019-02-19T23:56:12.145Z,8.60
2019-02-19T23:58:39.947Z,8.60
